Time;durP1;ratioP1;P1;durP2;ratioP2;P2;SDS_P1;SDS_P2;PMS_P1;PMS_P2;Temp;Humidity;BMP_temperature;BMP_pressure;BME280_temperature;BME280_humidity;BME280_pressure;Samples;Min_cycle;Max_cycle;Signal;HPM_P1;HPM_P2
2022/07/15 00:00:25;;;;;;;3.83;1.63;;;13.10;99.90;;;;;;5092293;28;20095;-56
2022/07/15 00:02:50;;;;;;;5.72;1.45;;;13.10;99.90;;;;;;5093396;28;20024;-59
2022/07/15 00:05:16;;;;;;;6.28;1.27;;;13.10;99.90;;;;;;5086536;28;20435;-54
2022/07/15 00:07:42;;;;;;;4.18;1.02;;;13.10;99.90;;;;;;5088307;28;20423;-51
2022/07/15 00:10:14;;;;;;;6.25;1.10;;;13.10;99.90;;;;;;5096963;28;20480;-55
2022/07/15 00:12:47;;;;;;;6.03;1.40;;;13.10;99.90;;;;;;5087419;28;20076;-57
2022/07/15 00:15:14;;;;;;;7.65;1.55;;;13.10;99.90;;;;;;5088768;28;20020;-58
2022/07/15 00:17:41;;;;;;;4.43;1.17;;;13.10;99.90;;;;;;5092767;28;20395;-57
2022/07/15 00:20:09;;;;;;;5.40;1.40;;;13.10;99.90;;;;;;5094572;28;20031;-57
2022/07/15 00:22:35;;;;;;;4.18;1.30;;;13.10;99.90;;;;;;5089138;28;20103;-57
2022/07/15 00:25:01;;;;;;;4.57;1.10;;;13.10;99.90;;;;;;5087544;28;20106;-58
2022/07/15 00:27:27;;;;;;;3.40;1.20;;;13.10;99.90;;;;;;5085922;28;20607;-50
2022/07/15 00:29:52;;;;;;;3.90;1.20;;;13.10;99.90;;;;;;5089748;28;20028;-51
2022/07/15 00:32:18;;;;;;;6.47;1.58;;;13.10;99.90;;;;;;5092202;28;20116;-53
2022/07/15 00:34:43;;;;;;;3.13;0.88;;;13.10;99.90;;;;;;5091184;28;20514;-60
2022/07/15 00:37:09;;;;;;;2.80;0.95;;;13.10;99.90;;;;;;5089266;28;20051;-55
2022/07/15 00:39:34;;;;;;;4.05;1.25;;;13.10;99.90;;;;;;5089021;28;20031;-55
2022/07/15 00:42:00;;;;;;;3.72;1.10;;;13.00;99.90;;;;;;5089390;28;20016;-56
2022/07/15 00:44:26;;;;;;;2.10;0.93;;;13.00;99.90;;;;;;5090712;28;20021;-56
2022/07/15 00:46:55;;;;;;;4.53;1.00;;;12.90;99.90;;;;;;5100402;22;20047;-49
2022/07/15 00:49:20;;;;;;;3.00;0.95;;;12.90;99.90;;;;;;5070017;28;20027;-49
2022/07/15 00:51:54;;;;;;;5.40;1.35;;;12.90;99.90;;;;;;5068099;28;20036;-49
2022/07/15 00:54:26;;;;;;;2.50;0.73;;;12.90;99.90;;;;;;5072523;28;20039;-46
2022/07/15 00:56:55;;;;;;;5.55;1.52;;;12.90;99.90;;;;;;5073480;28;20020;-47
2022/07/15 00:59:23;;;;;;;5.90;1.25;;;12.90;99.90;;;;;;5058148;28;20078;-50
2022/07/15 01:01:50;;;;;;;6.93;1.27;;;12.90;99.90;;;;;;5030353;28;20116;-51
2022/07/15 01:04:17;;;;;;;3.80;0.88;;;12.90;99.90;;;;;;5066053;28;20091;-47
2022/07/15 01:06:43;;;;;;;2.60;0.98;;;12.90;99.90;;;;;;5064037;28;20027;-48
2022/07/15 01:09:08;;;;;;;3.88;0.90;;;12.90;99.90;;;;;;5061763;28;20040;-51
2022/07/15 01:11:35;;;;;;;4.05;1.00;;;12.90;99.90;;;;;;5060693;28;20072;-50
2022/07/15 01:14:02;;;;;;;2.10;0.82;;;12.90;99.90;;;;;;5061837;28;20036;-55
2022/07/15 01:16:27;;;;;;;3.95;0.82;;;13.00;99.90;;;;;;5063129;28;20029;-46
2022/07/15 01:18:54;;;;;;;3.20;1.10;;;13.00;99.90;;;;;;5060222;28;20025;-51
2022/07/15 01:21:19;;;;;;;3.00;0.90;;;13.00;99.90;;;;;;5058172;28;20078;-49
2022/07/15 01:23:45;;;;;;;4.60;1.02;;;13.00;99.90;;;;;;5062201;28;20024;-51
2022/07/15 01:26:12;;;;;;;4.60;1.33;;;13.00;99.90;;;;;;5060223;28;20550;-53
2022/07/15 01:28:39;;;;;;;3.05;0.80;;;13.00;99.90;;;;;;5058977;28;20071;-46
2022/07/15 01:31:05;;;;;;;4.10;1.27;;;13.00;99.90;;;;;;5061185;28;20074;-47
2022/07/15 01:33:32;;;;;;;5.25;0.95;;;13.00;99.90;;;;;;5063678;28;20036;-51
2022/07/15 01:35:58;;;;;;;2.00;0.77;;;13.00;99.90;;;;;;5058564;28;20047;-53
2022/07/15 01:38:25;;;;;;;2.63;0.73;;;13.00;99.90;;;;;;5068195;28;20020;-48
2022/07/15 01:40:50;;;;;;;3.80;0.95;;;13.00;99.90;;;;;;5063691;28;20031;-47
2022/07/15 01:43:16;;;;;;;3.70;0.85;;;13.00;99.90;;;;;;5060723;28;20024;-56
2022/07/15 01:45:43;;;;;;;5.63;1.23;;;13.00;99.90;;;;;;5065497;28;20031;-55
2022/07/15 01:49:21;;;;;;;5.38;0.85;;;13.00;99.90;;;;;;5054557;28;20115;-49
2022/07/15 01:50:56;;;;;;;4.20;1.10;;;12.90;99.90;;;;;;5061992;28;20025;-49
2022/07/15 01:53:23;;;;;;;0.88;0.60;;;12.90;99.90;;;;;;5061857;28;20277;-56
2022/07/15 01:55:48;;;;;;;2.33;0.68;;;12.90;99.90;;;;;;5062978;28;20111;-50
2022/07/15 01:58:14;;;;;;;3.33;0.90;;;12.90;99.90;;;;;;5054313;28;20096;-59
2022/07/15 02:00:39;;;;;;;3.65;0.80;;;13.00;99.90;;;;;;5062541;28;20036;-50
2022/07/15 02:03:07;;;;;;;4.40;0.95;;;12.90;99.90;;;;;;5063570;28;20020;-47
2022/07/15 02:05:33;;;;;;;5.75;0.70;;;12.90;99.90;;;;;;5064421;28;20020;-51
2022/07/15 02:07:59;;;;;;;4.65;0.85;;;13.00;99.90;;;;;;5069711;28;20100;-52
2022/07/15 02:10:25;;;;;;;0.90;0.77;;;13.00;99.90;;;;;;5063415;28;20116;-50
2022/07/15 02:12:50;;;;;;;2.38;0.50;;;13.00;99.90;;;;;;5067465;28;20024;-55
2022/07/15 02:15:16;;;;;;;3.38;0.85;;;13.00;99.90;;;;;;5062969;28;20083;-50
2022/07/15 02:17:42;;;;;;;2.25;0.82;;;13.00;99.90;;;;;;5070904;28;20032;-50
2022/07/15 02:20:09;;;;;;;1.30;0.45;;;13.00;99.90;;;;;;5046622;28;20059;-52
2022/07/15 02:22:37;;;;;;;2.42;0.40;;;13.00;99.90;;;;;;5063694;28;20104;-51
2022/07/15 02:25:03;;;;;;;1.58;0.50;;;13.00;99.90;;;;;;5045833;28;20045;-49
2022/07/15 02:27:29;;;;;;;2.45;0.68;;;13.00;99.90;;;;;;5065777;28;20068;-52
2022/07/15 02:29:56;;;;;;;1.27;0.57;;;13.00;99.90;;;;;;5054734;28;20136;-48
2022/07/15 02:32:21;;;;;;;2.65;0.80;;;13.00;99.90;;;;;;5061087;28;20502;-49
2022/07/15 02:34:47;;;;;;;1.95;0.50;;;13.00;99.90;;;;;;5065336;28;20036;-54
2022/07/15 02:37:13;;;;;;;2.15;1.10;;;13.00;99.90;;;;;;5059960;28;20024;-46
2022/07/15 02:39:38;;;;;;;3.75;1.10;;;13.00;99.90;;;;;;5065455;28;20029;-51
2022/07/15 02:42:04;;;;;;;2.67;0.73;;;12.90;99.90;;;;;;5067270;28;20028;-50
2022/07/15 02:44:29;;;;;;;2.15;0.50;;;13.00;99.90;;;;;;5065831;28;20028;-52
2022/07/15 02:46:55;;;;;;;3.10;0.70;;;13.00;99.90;;;;;;5069130;28;20079;-47
2022/07/15 02:49:20;;;;;;;2.97;0.82;;;13.00;99.90;;;;;;5061075;28;20045;-48
2022/07/15 02:51:46;;;;;;;4.68;1.00;;;13.00;99.90;;;;;;5059751;28;20031;-48
2022/07/15 02:54:12;;;;;;;2.22;0.70;;;13.00;99.90;;;;;;5069800;28;20124;-47
2022/07/15 02:56:37;;;;;;;2.00;0.80;;;13.00;99.90;;;;;;5064389;28;20029;-47
2022/07/15 02:59:03;;;;;;;3.05;0.75;;;13.00;99.90;;;;;;5048519;28;20024;-47
2022/07/15 03:01:28;;;;;;;4.97;0.90;;;13.00;99.90;;;;;;5064801;28;20024;-48
2022/07/15 03:03:55;;;;;;;2.55;0.88;;;13.00;99.90;;;;;;5062710;28;20021;-54
2022/07/15 03:06:21;;;;;;;1.15;0.60;;;13.00;99.90;;;;;;5066280;28;20025;-48
2022/07/15 03:08:47;;;;;;;5.85;0.85;;;13.00;99.90;;;;;;5062929;28;20489;-48
2022/07/15 03:11:12;;;;;;;1.40;0.68;;;13.00;99.90;;;;;;5060744;28;20104;-49
2022/07/15 03:13:38;;;;;;;0.88;0.50;;;13.00;99.90;;;;;;5067966;28;20096;-53
2022/07/15 03:16:04;;;;;;;0.63;0.55;;;13.00;99.90;;;;;;5066886;28;20098;-47
2022/07/15 03:18:29;;;;;;;5.38;1.10;;;13.00;99.90;;;;;;5067856;28;20032;-47
2022/07/15 03:20:55;;;;;;;3.33;1.10;;;13.00;99.90;;;;;;5066081;28;20035;-48
2022/07/15 03:23:21;;;;;;;2.47;0.70;;;13.00;99.90;;;;;;5046314;28;20594;-53
2022/07/15 03:25:47;;;;;;;3.22;1.42;;;13.00;99.90;;;;;;5066737;28;20013;-48
2022/07/15 03:28:12;;;;;;;2.30;0.73;;;13.00;99.90;;;;;;5046483;28;20025;-49
2022/07/15 03:30:38;;;;;;;9.50;1.83;;;13.00;99.90;;;;;;5059327;28;20024;-49
2022/07/15 03:33:03;;;;;;;4.07;0.77;;;13.00;99.90;;;;;;5066550;28;20082;-47
2022/07/15 03:35:29;;;;;;;2.30;0.60;;;13.00;99.90;;;;;;5061873;28;20024;-54
2022/07/15 03:37:55;;;;;;;3.97;1.15;;;13.10;99.90;;;;;;5047050;28;20020;-49
2022/07/15 03:40:20;;;;;;;5.10;0.55;;;13.10;99.90;;;;;;5064860;28;20032;-49
2022/07/15 03:42:46;;;;;;;3.88;0.60;;;13.10;99.90;;;;;;5064237;28;20092;-51
2022/07/15 03:45:11;;;;;;;6.95;0.98;;;13.00;99.90;;;;;;5066718;28;20028;-54
2022/07/15 03:47:37;;;;;;;6.45;1.00;;;13.10;99.90;;;;;;5056232;28;20459;-46
2022/07/15 03:50:02;;;;;;;4.15;0.43;;;13.10;99.90;;;;;;5059345;28;20033;-47
2022/07/15 03:52:28;;;;;;;4.70;0.80;;;13.10;99.90;;;;;;5063908;28;20487;-56
2022/07/15 03:54:54;;;;;;;3.65;0.95;;;13.10;99.90;;;;;;5060922;28;20029;-54
2022/07/15 03:57:20;;;;;;;2.13;1.08;;;13.20;99.90;;;;;;5056859;28;20099;-51
2022/07/15 03:59:46;;;;;;;2.58;0.82;;;13.20;99.90;;;;;;5044542;28;20071;-50
2022/07/15 04:02:11;;;;;;;1.80;0.80;;;13.20;99.90;;;;;;5068607;28;20025;-50
2022/07/15 04:04:37;;;;;;;4.10;1.20;;;13.20;99.90;;;;;;5062811;28;20021;-52
2022/07/15 04:07:02;;;;;;;4.85;0.93;;;13.20;99.90;;;;;;5067595;28;20052;-52
2022/07/15 04:09:28;;;;;;;4.88;0.75;;;13.20;99.90;;;;;;5062634;28;20036;-52
2022/07/15 04:11:53;;;;;;;2.58;0.70;;;13.20;99.90;;;;;;5066553;28;20028;-50
2022/07/15 04:14:22;;;;;;;2.40;0.98;;;13.20;99.90;;;;;;5044751;28;20447;-49
2022/07/15 04:16:47;;;;;;;3.85;0.75;;;13.30;99.90;;;;;;5066080;28;20024;-50
2022/07/15 04:19:13;;;;;;;1.88;0.57;;;13.30;99.90;;;;;;5062425;28;20024;-55
2022/07/15 04:21:38;;;;;;;7.80;0.90;;;13.30;99.90;;;;;;5067693;28;20032;-49
2022/07/15 04:24:04;;;;;;;1.33;0.80;;;13.30;99.90;;;;;;5054167;28;20024;-50
2022/07/15 04:26:30;;;;;;;3.95;0.95;;;13.40;99.90;;;;;;5051370;28;20021;-49
2022/07/15 04:28:56;;;;;;;3.28;0.73;;;13.40;99.90;;;;;;5062563;28;20036;-51
2022/07/15 04:31:22;;;;;;;3.80;0.95;;;13.40;99.90;;;;;;5063225;28;20025;-47
2022/07/15 04:33:47;;;;;;;5.63;1.60;;;13.40;99.90;;;;;;5065667;28;20024;-50
2022/07/15 04:36:13;;;;;;;2.40;1.05;;;13.50;99.90;;;;;;5067329;28;20104;-50
2022/07/15 04:38:38;;;;;;;5.90;1.40;;;13.60;99.90;;;;;;5064944;28;20210;-47
2022/07/15 04:41:04;;;;;;;5.60;2.45;;;13.60;99.90;;;;;;5067131;28;20016;-49
2022/07/15 04:43:30;;;;;;;5.50;0.70;;;13.60;99.90;;;;;;5063570;28;20017;-49
2022/07/15 04:45:55;;;;;;;4.82;1.08;;;13.70;99.90;;;;;;5065971;28;20032;-51
2022/07/15 04:51:05;;;;;;;5.03;1.00;;;13.70;99.90;;;;;;5066859;28;20062;-50
2022/07/15 04:53:31;;;;;;;6.43;0.95;;;13.80;99.90;;;;;;5068401;28;20129;-52
2022/07/15 04:55:56;;;;;;;3.30;1.35;;;13.80;99.90;;;;;;5063312;28;20104;-47
2022/07/15 04:58:22;;;;;;;4.03;0.80;;;13.80;99.90;;;;;;5060513;28;20036;-47
2022/07/15 05:00:48;;;;;;;4.20;1.27;;;13.80;99.90;;;;;;5068633;28;20052;-55
2022/07/15 05:03:14;;;;;;;6.13;0.93;;;13.80;99.90;;;;;;5060727;28;20415;-48
2022/07/15 05:05:40;;;;;;;4.38;0.82;;;13.90;99.90;;;;;;5063981;28;20117;-48
2022/07/15 05:08:06;;;;;;;4.00;1.25;;;13.90;99.90;;;;;;5059705;28;20075;-47
2022/07/15 05:10:32;;;;;;;2.38;1.20;;;13.90;99.90;;;;;;5061848;28;20021;-54
2022/07/15 05:12:58;;;;;;;2.63;0.95;;;14.00;99.90;;;;;;5048954;28;20029;-48
2022/07/15 05:15:23;;;;;;;6.35;1.38;;;14.00;99.90;;;;;;5057534;28;20363;-47
2022/07/15 05:17:49;;;;;;;3.20;0.70;;;14.10;99.90;;;;;;5067883;28;20027;-51
2022/07/15 05:20:15;;;;;;;2.80;1.17;;;14.10;99.90;;;;;;5064934;28;20446;-54
2022/07/15 05:22:40;;;;;;;7.07;1.20;;;14.20;99.90;;;;;;5065358;28;20021;-53
2022/07/15 05:25:06;;;;;;;3.80;1.02;;;14.20;99.90;;;;;;5061589;28;20029;-53
2022/07/15 05:27:32;;;;;;;4.90;1.02;;;14.20;99.90;;;;;;5065795;28;20415;-52
2022/07/15 05:29:57;;;;;;;4.82;0.93;;;14.20;99.90;;;;;;5067575;28;20029;-53
2022/07/15 05:32:23;;;;;;;1.77;1.15;;;14.20;99.90;;;;;;5058850;28;20553;-51
2022/07/15 05:34:49;;;;;;;3.00;1.00;;;14.30;99.90;;;;;;5064441;28;20515;-57
2022/07/15 05:37:14;;;;;;;4.88;1.08;;;14.30;99.90;;;;;;5066100;28;20472;-49
2022/07/15 05:39:53;;;;;;;2.25;1.05;;;14.40;99.90;;;;;;5052317;28;20436;-53
2022/07/15 05:42:20;;;;;;;4.13;1.13;;;14.40;99.90;;;;;;5036612;28;20404;-51
2022/07/15 05:44:46;;;;;;;5.05;1.17;;;14.40;99.90;;;;;;5069191;28;20024;-51
2022/07/15 05:47:11;;;;;;;7.32;1.42;;;14.50;99.90;;;;;;5068129;28;20391;-54
2022/07/15 05:49:37;;;;;;;4.93;0.90;;;14.50;99.90;;;;;;5060732;28;20032;-55
2022/07/15 05:52:02;;;;;;;5.45;1.00;;;14.50;99.90;;;;;;5070845;28;20032;-48
2022/07/15 05:54:28;;;;;;;3.17;0.73;;;14.50;99.90;;;;;;5072082;28;20032;-51
2022/07/15 05:56:53;;;;;;;7.57;1.38;;;14.60;99.90;;;;;;5048156;28;20423;-48
2022/07/15 05:59:19;;;;;;;4.35;0.88;;;14.70;99.90;;;;;;5068629;28;20021;-52
2022/07/15 06:01:46;;;;;;;1.42;0.60;;;14.70;99.90;;;;;;5071153;28;20250;-53
2022/07/15 06:04:13;;;;;;;2.58;0.75;;;14.80;99.90;;;;;;5050099;28;20473;-49
2022/07/15 06:06:39;;;;;;;5.47;1.10;;;14.90;99.90;;;;;;5070335;28;20478;-47
2022/07/15 06:09:04;;;;;;;2.83;0.85;;;14.90;99.90;;;;;;5066937;28;20041;-48
2022/07/15 06:11:30;;;;;;;4.30;0.65;;;15.00;99.90;;;;;;5069423;28;20024;-51
2022/07/15 06:13:56;;;;;;;3.50;0.80;;;15.00;99.90;;;;;;5065634;28;20028;-54
2022/07/15 06:16:22;;;;;;;3.63;1.17;;;14.90;99.90;;;;;;5050807;28;20017;-47
2022/07/15 06:18:48;;;;;;;2.70;0.98;;;14.80;99.90;;;;;;5070930;28;20035;-52
2022/07/15 06:21:14;;;;;;;4.78;1.05;;;14.60;99.90;;;;;;5045115;28;20040;-47
2022/07/15 06:23:39;;;;;;;4.60;1.20;;;14.40;99.90;;;;;;5070139;28;20016;-47
2022/07/15 06:26:05;;;;;;;2.65;0.60;;;14.40;99.90;;;;;;5066496;28;20020;-48
2022/07/15 06:28:31;;;;;;;3.13;1.08;;;14.30;99.90;;;;;;5068780;28;20032;-52
2022/07/15 06:30:56;;;;;;;6.32;1.23;;;14.30;99.90;;;;;;5065617;28;20058;-52
2022/07/15 06:33:24;;;;;;;7.18;1.13;;;14.40;99.90;;;;;;5049783;28;20016;-47
2022/07/15 06:35:49;;;;;;;2.22;1.10;;;14.40;99.90;;;;;;5070203;28;20103;-47
2022/07/15 06:38:15;;;;;;;2.63;0.80;;;14.50;99.90;;;;;;5067133;28;20104;-48
2022/07/15 06:40:41;;;;;;;3.97;0.60;;;14.60;99.90;;;;;;5069704;28;20366;-50
2022/07/15 06:43:07;;;;;;;2.15;1.10;;;14.70;99.90;;;;;;5063901;28;20035;-54
2022/07/15 06:45:32;;;;;;;2.38;0.50;;;14.90;99.90;;;;;;5068750;28;20027;-47
2022/07/15 06:47:58;;;;;;;3.22;0.90;;;15.00;99.90;;;;;;5144436;22;20055;-50
2022/07/15 06:50:24;;;;;;;2.33;0.65;;;15.20;99.90;;;;;;5086832;28;20063;-54
2022/07/15 06:52:50;;;;;;;4.05;2.72;;;15.40;99.90;;;;;;5081334;28;20035;-53
2022/07/15 06:55:15;;;;;;;3.70;0.70;;;15.60;99.90;;;;;;5097720;28;20020;-54
2022/07/15 06:57:41;;;;;;;3.25;0.57;;;15.70;99.90;;;;;;5088229;28;20020;-50
2022/07/15 07:00:09;;;;;;;1.52;0.52;;;15.80;99.90;;;;;;5086957;28;20122;-49
2022/07/15 07:02:34;;;;;;;3.65;1.13;;;15.90;99.90;;;;;;5090749;28;20157;-53
2022/07/15 07:05:00;;;;;;;3.08;0.85;;;15.80;99.90;;;;;;5085179;28;20518;-52
2022/07/15 07:07:26;;;;;;;0.70;0.40;;;15.80;99.90;;;;;;5072385;28;20585;-55
2022/07/15 07:09:51;;;;;;;2.65;0.82;;;15.90;99.90;;;;;;5067267;28;20031;-51
2022/07/15 07:12:17;;;;;;;7.85;1.08;;;15.90;99.90;;;;;;5088296;28;20028;-53
2022/07/15 07:14:43;;;;;;;3.47;0.98;;;16.00;99.90;;;;;;5084969;28;20016;-54
2022/07/15 07:17:08;;;;;;;1.75;0.60;;;16.00;99.90;;;;;;5086330;28;20697;-53
2022/07/15 07:19:34;;;;;;;1.65;0.55;;;16.00;99.90;;;;;;5090383;28;20034;-57
2022/07/15 07:22:00;;;;;;;2.45;0.70;;;16.10;99.90;;;;;;5084625;28;20016;-53
2022/07/15 07:24:25;;;;;;;1.45;0.50;;;16.20;99.90;;;;;;5090452;28;20028;-54
2022/07/15 07:26:51;;;;;;;2.78;0.70;;;16.20;99.90;;;;;;5085183;28;20081;-50
2022/07/15 07:29:22;;;;;;;3.58;0.85;;;16.20;99.90;;;;;;5088522;28;20481;-49
2022/07/15 07:31:51;;;;;;;0.70;0.40;;;16.30;99.90;;;;;;5083958;28;20024;-52
2022/07/15 07:34:18;;;;;;;3.47;1.05;;;16.40;99.90;;;;;;5049258;28;20035;-54
2022/07/15 07:36:45;;;;;;;0.73;0.40;;;16.50;99.90;;;;;;5089667;28;20378;-52
2022/07/15 07:39:12;;;;;;;3.63;0.70;;;16.60;99.90;;;;;;5083790;28;20029;-55
2022/07/15 07:41:37;;;;;;;1.70;0.70;;;16.60;99.90;;;;;;5089237;28;20504;-54
2022/07/15 07:44:03;;;;;;;3.40;0.63;;;16.70;99.90;;;;;;5082339;28;20031;-56
2022/07/15 07:46:29;;;;;;;1.25;0.35;;;16.70;99.90;;;;;;5089060;28;20016;-54
2022/07/15 07:48:55;;;;;;;2.00;0.50;;;16.70;99.90;;;;;;5075665;28;20410;-52
2022/07/15 07:51:21;;;;;;;6.05;1.27;;;16.70;99.90;;;;;;5088545;28;20034;-54
2022/07/15 07:53:47;;;;;;;2.65;0.70;;;16.60;99.90;;;;;;5089829;28;20483;-58
2022/07/15 07:56:12;;;;;;;3.67;0.85;;;16.60;99.90;;;;;;5079768;28;20029;-54
2022/07/15 07:58:39;;;;;;;1.17;0.43;;;16.50;99.90;;;;;;5065960;28;20111;-54
2022/07/15 08:01:05;;;;;;;4.07;0.95;;;16.50;99.90;;;;;;5088481;28;20017;-51
2022/07/15 08:03:30;;;;;;;5.18;0.70;;;16.50;99.90;;;;;;5085374;28;20467;-53
2022/07/15 08:05:56;;;;;;;0.82;0.50;;;16.50;99.90;;;;;;5088507;28;20041;-54
2022/07/15 08:08:25;;;;;;;3.47;0.77;;;16.40;99.90;;;;;;5085364;28;20024;-56
2022/07/15 08:10:54;;;;;;;2.38;0.65;;;16.50;99.90;;;;;;5081009;28;20020;-53
2022/07/15 08:13:22;;;;;;;1.70;1.02;;;16.50;99.90;;;;;;5066768;28;20021;-56
2022/07/15 08:15:48;;;;;;;0.85;0.50;;;16.50;99.90;;;;;;5085293;28;20035;-55
2022/07/15 08:18:15;;;;;;;2.97;0.40;;;16.50;99.90;;;;;;5072693;28;20028;-54
2022/07/15 08:20:41;;;;;;;5.00;1.20;;;16.60;99.90;;;;;;5085389;28;20500;-54
2022/07/15 08:23:10;;;;;;;3.00;1.05;;;16.70;99.90;;;;;;5087688;28;20051;-51
2022/07/15 08:25:37;;;;;;;7.68;0.82;;;16.80;99.90;;;;;;5084457;28;20469;-55
2022/07/15 08:28:04;;;;;;;1.48;0.63;;;17.00;99.90;;;;;;5086794;28;20551;-53
2022/07/15 08:30:31;;;;;;;4.30;0.70;;;17.10;99.90;;;;;;5083213;28;20020;-54
2022/07/15 08:32:57;;;;;;;2.78;0.82;;;17.20;99.90;;;;;;5085489;28;20024;-54
2022/07/15 08:35:24;;;;;;;2.40;0.80;;;17.20;99.90;;;;;;5088002;28;20107;-53
2022/07/15 08:37:50;;;;;;;1.50;0.68;;;17.10;99.90;;;;;;5084678;28;20085;-51
2022/07/15 08:40:15;;;;;;;1.10;0.70;;;17.10;99.90;;;;;;5069403;28;20016;-51
2022/07/15 08:42:43;;;;;;;6.38;0.70;;;17.20;99.90;;;;;;5084141;28;20425;-51
2022/07/15 08:45:10;;;;;;;1.27;0.43;;;17.30;99.90;;;;;;5074905;28;20651;-54
2022/07/15 08:47:39;;;;;;;2.65;0.80;;;17.30;99.90;;;;;;5080454;28;20420;-53
2022/07/15 08:50:05;;;;;;;2.50;0.50;;;17.30;99.90;;;;;;5059272;28;20580;-58
2022/07/15 08:52:33;;;;;;;3.45;0.73;;;17.40;99.90;;;;;;5088081;28;20032;-55
2022/07/15 08:54:59;;;;;;;3.05;0.63;;;17.20;99.90;;;;;;5080257;28;20499;-54
2022/07/15 08:57:25;;;;;;;4.97;1.02;;;17.10;99.90;;;;;;5082541;28;20028;-55
2022/07/15 08:59:52;;;;;;;3.88;0.52;;;16.90;99.90;;;;;;5079926;28;20516;-55
2022/07/15 09:02:22;;;;;;;2.38;0.77;;;16.80;99.90;;;;;;5068684;28;20187;-51
2022/07/15 09:05:16;;;;;;;2.25;0.60;;;16.60;99.90;;;;;;5077294;28;20108;-49
2022/07/15 09:08:14;;;;;;;1.23;0.52;;;16.50;99.90;;;;;;5073435;28;20021;-54
2022/07/15 09:10:52;;;;;;;1.08;0.40;;;16.40;99.90;;;;;;5077276;28;20111;-55
2022/07/15 09:13:36;;;;;;;3.55;0.63;;;16.50;99.90;;;;;;5088459;28;20016;-52
2022/07/15 09:16:11;;;;;;;1.63;0.50;;;16.50;99.90;;;;;;5077071;28;20017;-58
2022/07/15 09:18:42;;;;;;;6.72;1.25;;;16.60;99.90;;;;;;5092276;28;20062;-50
2022/07/15 09:21:19;;;;;;;3.10;0.73;;;16.80;99.90;;;;;;5089202;28;20659;-50
2022/07/15 09:23:45;;;;;;;1.42;0.22;;;17.00;99.90;;;;;;5091328;28;20012;-51
2022/07/15 09:26:24;;;;;;;3.72;0.65;;;17.20;99.90;;;;;;5085073;28;20024;-53
2022/07/15 09:28:50;;;;;;;2.10;0.30;;;17.40;99.90;;;;;;5090231;28;20036;-55
2022/07/15 09:34:23;;;;;;;1.17;0.32;;;17.90;99.90;;;;;;5092154;28;20621;-49
2022/07/15 09:36:54;;;;;;;1.83;0.45;;;18.10;99.90;;;;;;5089571;28;20036;-58
2022/07/15 09:39:21;;;;;;;0.55;0.30;;;18.40;99.90;;;;;;5090770;28;20035;-53
2022/07/15 09:41:47;;;;;;;3.08;0.68;;;18.70;99.90;;;;;;5089641;28;20047;-54
2022/07/15 09:44:14;;;;;;;1.00;0.43;;;19.00;99.90;;;;;;5088138;28;20098;-53
2022/07/15 09:46:53;;;;;;;4.28;0.77;;;19.30;99.90;;;;;;5079759;28;20575;-52
2022/07/15 09:49:22;;;;;;;3.75;0.60;;;19.60;99.90;;;;;;5073994;28;20080;-51
2022/07/15 09:51:57;;;;;;;4.47;0.55;;;19.90;99.90;;;;;;5070888;28;20375;-56
2022/07/15 09:54:31;;;;;;;4.03;0.45;;;20.00;99.90;;;;;;5081590;28;20024;-56
2022/07/15 09:57:02;;;;;;;4.50;0.47;;;20.00;99.90;;;;;;5086631;28;20073;-57
2022/07/15 09:59:31;;;;;;;0.82;0.30;;;19.80;99.50;;;;;;5089041;28;20020;-51
2022/07/15 10:01:58;;;;;;;2.22;0.63;;;19.60;98.50;;;;;;5084892;28;20035;-51
2022/07/15 10:04:26;;;;;;;1.40;0.40;;;19.40;99.00;;;;;;5075354;28;20557;-59
2022/07/15 10:06:54;;;;;;;0.88;0.40;;;19.20;99.20;;;;;;5090360;28;20028;-55
2022/07/15 10:09:24;;;;;;;2.25;0.85;;;19.10;99.60;;;;;;5083683;28;20024;-51
2022/07/15 10:11:53;;;;;;;2.38;0.50;;;18.80;99.90;;;;;;5069260;28;20024;-51
2022/07/15 10:14:28;;;;;;;1.27;0.55;;;18.60;99.90;;;;;;5086201;28;20016;-56
2022/07/15 10:16:59;;;;;;;1.08;0.57;;;18.50;99.90;;;;;;5089860;28;20031;-52
2022/07/15 10:19:57;;;;;;;1.55;0.73;;;18.50;99.90;;;;;;5068086;28;20030;-54
2022/07/15 10:22:54;;;;;;;3.25;0.65;;;18.50;99.90;;;;;;5083662;28;20170;-53
2022/07/15 10:25:32;;;;;;;0.88;0.40;;;18.60;99.90;;;;;;5071124;28;20009;-55
2022/07/15 10:28:06;;;;;;;2.67;0.43;;;18.60;99.90;;;;;;5085970;28;20028;-54
2022/07/15 10:30:32;;;;;;;2.17;0.68;;;18.90;99.90;;;;;;5067534;28;20032;-52
2022/07/15 10:33:03;;;;;;;1.50;0.45;;;19.00;99.50;;;;;;5090604;28;20026;-52
2022/07/15 10:35:41;;;;;;;3.50;0.63;;;19.10;99.50;;;;;;5091104;28;20050;-57
2022/07/15 10:38:29;;;;;;;5.10;0.73;;;19.20;99.50;;;;;;5081381;28;20051;-53
2022/07/15 10:40:59;;;;;;;1.98;0.52;;;19.40;99.60;;;;;;5074902;28;20036;-50
2022/07/15 10:43:45;;;;;;;3.13;0.90;;;19.50;99.20;;;;;;5068036;28;20089;-54
2022/07/15 10:46:17;;;;;;;;;;;19.60;97.70;;;;;;5076570;28;20048;-55
2022/07/15 10:49:12;;;;;;;2.90;0.40;;;19.60;96.80;;;;;;5078089;28;19919;-57
2022/07/15 10:51:39;;;;;;;1.90;0.55;;;19.60;96.70;;;;;;5083375;28;20110;-55
2022/07/15 10:54:06;;;;;;;1.08;0.57;;;19.50;97.30;;;;;;5090006;28;20449;-57
2022/07/15 10:56:44;;;;;;;0.90;0.30;;;19.50;97.40;;;;;;5069868;28;20036;-53
2022/07/15 10:59:10;;;;;;;2.17;0.50;;;19.50;97.50;;;;;;5087267;28;20059;-54
2022/07/15 11:01:37;;;;;;;0.88;0.25;;;19.40;97.50;;;;;;5088740;28;20151;-54
2022/07/15 11:04:11;;;;;;;1.85;0.63;;;19.20;97.70;;;;;;5086643;28;20387;-55
2022/07/15 11:07:15;;;;;;;1.98;0.40;;;19.10;97.90;;;;;;5090514;28;20482;-55
2022/07/15 11:09:43;;;;;;;1.20;0.75;;;19.10;99.00;;;;;;5003696;28;20667;-53
2022/07/15 11:12:09;;;;;;;1.50;0.30;;;19.00;99.00;;;;;;5065653;28;20065;-55
2022/07/15 11:14:45;;;;;;;1.13;0.32;;;19.10;99.20;;;;;;5066246;28;20039;-59
2022/07/15 11:17:16;;;;;;;4.88;0.93;;;19.20;99.70;;;;;;5089915;28;20080;-56
2022/07/15 11:19:45;;;;;;;3.05;0.70;;;19.20;98.80;;;;;;5081050;28;20068;-54
2022/07/15 11:22:10;;;;;;;3.33;0.43;;;19.30;99.50;;;;;;5088149;28;20020;-52
2022/07/15 11:24:36;;;;;;;2.28;0.55;;;19.50;99.70;;;;;;5080128;28;20110;-56
2022/07/15 11:27:02;;;;;;;2.50;0.55;;;19.80;99.90;;;;;;5085544;28;20028;-53
2022/07/15 11:29:41;;;;;;;1.83;0.75;;;20.00;99.40;;;;;;5090426;28;20036;-54
2022/07/15 11:32:07;;;;;;;2.03;0.43;;;20.20;99.00;;;;;;5078144;28;20040;-56
2022/07/15 11:34:40;;;;;;;3.50;0.70;;;20.20;97.60;;;;;;5089664;28;20032;-50
2022/07/15 11:37:05;;;;;;;1.35;0.70;;;19.90;98.10;;;;;;5084290;28;20093;-54
2022/07/15 11:39:31;;;;;;;1.73;0.68;;;19.80;97.90;;;;;;5089757;28;20024;-50
2022/07/15 11:44:51;;;;;;;1.92;0.77;;;19.80;98.10;;;;;;5080618;28;20097;-53
2022/07/15 11:47:17;;;;;;;4.25;0.80;;;19.80;97.30;;;;;;5074277;28;20035;-56
2022/07/15 11:49:46;;;;;;;1.80;0.30;;;19.90;98.20;;;;;;5082244;28;20113;-58
2022/07/15 11:52:24;;;;;;;1.15;0.40;;;20.00;97.60;;;;;;5089584;28;20260;-53
2022/07/15 11:54:49;;;;;;;4.05;0.63;;;20.20;97.50;;;;;;5087337;28;20032;-55
2022/07/15 11:57:16;;;;;;;2.40;0.65;;;20.10;97.00;;;;;;5084275;28;20509;-54
2022/07/15 11:59:54;;;;;;;4.63;0.93;;;20.30;97.90;;;;;;5068511;28;20031;-50
2022/07/15 12:02:26;;;;;;;4.72;0.77;;;20.50;97.60;;;;;;5049829;28;20051;-52
2022/07/15 12:05:02;;;;;;;1.23;0.57;;;20.60;97.80;;;;;;5085188;28;20019;-53
2022/07/15 12:07:45;;;;;;;3.15;0.50;;;20.60;97.00;;;;;;5068564;28;20051;-57
2022/07/15 12:10:12;;;;;;;2.17;0.70;;;20.50;98.50;;;;;;5086499;28;20017;-55
2022/07/15 12:12:51;;;;;;;1.65;0.50;;;20.50;97.70;;;;;;5080843;28;20458;-53
2022/07/15 12:15:17;;;;;;;1.27;0.38;;;20.30;97.60;;;;;;5076087;28;20039;-59
2022/07/15 12:17:43;;;;;;;2.88;0.70;;;20.10;97.30;;;;;;5080759;28;20028;-54
2022/07/15 12:20:09;;;;;;;1.75;0.65;;;20.00;98.00;;;;;;5088045;28;20036;-55
2022/07/15 12:22:35;;;;;;;1.13;0.40;;;20.10;98.40;;;;;;5087346;28;20012;-57
2022/07/15 12:25:01;;;;;;;2.85;0.60;;;20.30;99.10;;;;;;5086795;28;20034;-54
2022/07/15 12:27:37;;;;;;;1.60;0.40;;;20.40;97.50;;;;;;5086974;28;20027;-50
2022/07/15 12:30:06;;;;;;;3.15;0.65;;;20.40;98.10;;;;;;5067614;28;20051;-52
2022/07/15 12:32:32;;;;;;;5.20;0.50;;;20.20;97.40;;;;;;5082518;28;20397;-54
2022/07/15 12:34:59;;;;;;;2.70;0.63;;;20.00;97.50;;;;;;5068674;28;20036;-55
2022/07/15 12:37:28;;;;;;;1.17;0.20;;;19.80;97.60;;;;;;5065724;28;20032;-56
2022/07/15 12:40:09;;;;;;;2.92;0.50;;;19.70;97.40;;;;;;5082076;28;20421;-57
2022/07/15 12:42:49;;;;;;;3.63;0.50;;;19.70;96.50;;;;;;5082049;28;20016;-56
2022/07/15 12:45:20;;;;;;;4.03;0.50;;;19.90;96.80;;;;;;5080608;28;20020;-54
2022/07/15 12:50:16;;;;;;;1.08;0.38;;;20.30;97.40;;;;;;5094701;22;20044;-53
2022/07/15 12:52:44;;;;;;;1.60;0.50;;;20.60;95.90;;;;;;5067884;28;20126;-52
2022/07/15 12:55:21;;;;;;;2.42;0.70;;;20.70;95.90;;;;;;5075705;28;20477;-51
2022/07/15 12:57:47;;;;;;;2.28;0.38;;;20.80;95.80;;;;;;5066182;28;20024;-50
2022/07/15 13:00:20;;;;;;;3.10;0.28;;;20.80;95.80;;;;;;5063237;28;20039;-48
2022/07/15 13:03:01;;;;;;;1.88;0.47;;;20.80;95.90;;;;;;5068659;28;20491;-47